createdAt,value
2019-02-20T00:00:00.726Z,1006.5
2019-02-20T00:01:02.885Z,1006.5
2019-02-20T00:02:04.985Z,1006.4
2019-02-20T00:03:07.791Z,1006.3
2019-02-20T00:04:10.626Z,1006.4
2019-02-20T00:05:13.049Z,1006.3
2019-02-20T00:06:15.159Z,1006.3
2019-02-20T00:07:17.563Z,1006.3
2019-02-20T00:08:19.684Z,1006.3
2019-02-20T00:09:22.373Z,1006.3
2019-02-20T00:10:27.357Z,1006.3
2019-02-20T00:11:29.471Z,1006.3
2019-02-20T00:12:31.969Z,1006.3
2019-02-20T00:13:34.114Z,1006.3
2019-02-20T00:14:36.943Z,1006.4
2019-02-20T00:15:39.477Z,1006.4
2019-02-20T00:16:41.606Z,1006.4
2019-02-20T00:17:43.708Z,1006.4
2019-02-20T00:18:45.824Z,1006.4
2019-02-20T00:19:48.221Z,1006.5
2019-02-20T00:20:50.345Z,1006.5
2019-02-20T00:21:53.083Z,1006.5
2019-02-20T00:22:55.186Z,1006.5
2019-02-20T00:23:58.084Z,1006.5
2019-02-20T00:25:00.599Z,1006.5
2019-02-20T00:26:02.702Z,1006.5
2019-02-20T00:27:05.129Z,1006.6
2019-02-20T00:28:07.530Z,1006.6
2019-02-20T00:29:09.691Z,1006.6
2019-02-20T00:30:12.370Z,1006.6
2019-02-20T00:31:14.883Z,1006.5
2019-02-20T00:32:17.312Z,1006.6
2019-02-20T00:33:19.421Z,1006.6
2019-02-20T00:34:21.857Z,1006.6
2019-02-20T00:35:23.964Z,1006.6
2019-02-20T00:36:26.077Z,1006.6
2019-02-20T00:37:28.876Z,1006.6
2019-02-20T00:38:31.268Z,1006.6
2019-02-20T00:39:34.079Z,1006.6
2019-02-20T00:40:36.488Z,1006.6
2019-02-20T00:41:38.596Z,1006.6
2019-02-20T00:42:40.716Z,1006.6
2019-02-20T00:43:42.847Z,1006.6
2019-02-20T00:44:44.959Z,1006.6
2019-02-20T00:45:47.359Z,1006.6
2019-02-20T00:46:49.482Z,1006.7
2019-02-20T00:47:51.600Z,1006.7
2019-02-20T00:48:54.019Z,1006.7
2019-02-20T00:49:56.144Z,1006.7
2019-02-20T00:50:58.253Z,1006.7
2019-02-20T00:52:00.687Z,1006.7
2019-02-20T00:53:03.982Z,1006.7
2019-02-20T00:54:06.522Z,1006.7
2019-02-20T00:55:11.330Z,1006.7
2019-02-20T00:56:14.029Z,1006.8
2019-02-20T00:57:17.128Z,1006.7
2019-02-20T00:58:19.233Z,1006.7
2019-02-20T00:59:21.718Z,1006.7
2019-02-20T01:00:24.400Z,1006.7
2019-02-20T01:01:27.193Z,1006.8
2019-02-20T01:02:29.304Z,1006.8
2019-02-20T01:03:31.726Z,1006.8
2019-02-20T01:04:34.127Z,1006.8
2019-02-20T01:05:36.262Z,1006.8
2019-02-20T01:06:38.391Z,1006.8
2019-02-20T01:07:41.169Z,1006.8
2019-02-20T01:08:43.297Z,1006.8
2019-02-20T01:09:45.411Z,1006.8
2019-02-20T01:10:47.903Z,1006.7
2019-02-20T01:11:50.055Z,1006.8
2019-02-20T01:12:52.468Z,1006.8
2019-02-20T01:13:54.879Z,1006.8
2019-02-20T01:14:57.038Z,1006.7
2019-02-20T01:15:59.864Z,1006.7
2019-02-20T01:17:03.009Z,1006.7
2019-02-20T01:18:05.161Z,1006.7
2019-02-20T01:19:07.885Z,1006.7
2019-02-20T01:20:10.388Z,1006.7
2019-02-20T01:21:12.569Z,1006.7
2019-02-20T01:22:15.013Z,1006.7
2019-02-20T01:23:17.443Z,1006.7
2019-02-20T01:24:19.574Z,1006.8
2019-02-20T01:25:21.685Z,1006.8
2019-02-20T01:26:24.093Z,1006.7
2019-02-20T01:27:26.483Z,1006.7
2019-02-20T01:28:28.916Z,1006.8
2019-02-20T01:29:31.360Z,1006.8
2019-02-20T01:30:33.518Z,1006.7
2019-02-20T01:31:35.945Z,1006.7
2019-02-20T01:32:38.316Z,1006.8
2019-02-20T01:33:40.760Z,1006.8
2019-02-20T01:34:43.171Z,1006.8
2019-02-20T01:35:45.577Z,1006.8
2019-02-20T01:36:47.958Z,1006.7
2019-02-20T01:37:50.079Z,1006.7
2019-02-20T01:38:52.489Z,1006.7
2019-02-20T01:39:55.202Z,1006.7
2019-02-20T01:40:57.722Z,1006.6
2019-02-20T01:41:59.857Z,1006.7
2019-02-20T01:43:02.247Z,1006.7
2019-02-20T01:44:04.652Z,1006.7
2019-02-20T01:45:07.053Z,1006.7
2019-02-20T01:46:09.180Z,1006.7
2019-02-20T01:47:11.296Z,1006.7
2019-02-20T01:48:13.753Z,1006.8
2019-02-20T01:49:16.189Z,1006.7
2019-02-20T01:50:18.590Z,1006.8
2019-02-20T01:51:20.988Z,1006.8
2019-02-20T01:52:23.111Z,1006.8
2019-02-20T01:53:25.496Z,1006.8
2019-02-20T01:54:27.624Z,1006.9
2019-02-20T01:55:30.357Z,1006.9
2019-02-20T01:56:32.476Z,1007
2019-02-20T01:57:34.605Z,1006.9
2019-02-20T01:58:36.714Z,1006.9
2019-02-20T01:59:38.870Z,1006.9
2019-02-20T02:00:40.990Z,1006.9
2019-02-20T02:01:43.128Z,1006.8
2019-02-20T02:02:45.227Z,1006.9
2019-02-20T02:03:47.652Z,1006.9
2019-02-20T02:04:50.155Z,1006.9
2019-02-20T02:05:52.254Z,1006.8
2019-02-20T02:06:54.375Z,1006.9
2019-02-20T02:07:56.490Z,1006.8
2019-02-20T02:09:00.016Z,1006.8
2019-02-20T02:10:02.834Z,1006.9
2019-02-20T02:11:05.386Z,1006.8
2019-02-20T02:12:07.574Z,1006.8
2019-02-20T02:13:09.971Z,1006.8
2019-02-20T02:14:12.417Z,1006.8
2019-02-20T02:15:20.924Z,1006.8
2019-02-20T02:16:23.040Z,1006.8
2019-02-20T02:17:25.828Z,1006.8
2019-02-20T02:18:27.940Z,1006.9
2019-02-20T02:19:30.347Z,1006.8
2019-02-20T02:20:32.467Z,1006.8
2019-02-20T02:21:34.591Z,1006.8
2019-02-20T02:22:36.709Z,1006.8
2019-02-20T02:23:38.830Z,1006.8
2019-02-20T02:24:41.221Z,1006.8
2019-02-20T02:25:43.717Z,1006.9
2019-02-20T02:26:45.826Z,1006.9
2019-02-20T02:27:47.959Z,1006.9
2019-02-20T02:28:50.657Z,1006.8
2019-02-20T02:29:52.762Z,1006.9
2019-02-20T02:30:55.190Z,1006.9
2019-02-20T02:31:57.628Z,1006.9
2019-02-20T02:33:00.151Z,1006.9
2019-02-20T02:34:02.300Z,1006.9
2019-02-20T02:35:04.440Z,1006.9
2019-02-20T02:36:06.923Z,1006.9
2019-02-20T02:37:09.726Z,1006.9
2019-02-20T02:38:11.878Z,1006.9
2019-02-20T02:39:13.990Z,1006.9
2019-02-20T02:40:16.760Z,1006.9
2019-02-20T02:41:19.559Z,1006.9
2019-02-20T02:42:22.033Z,1006.9
2019-02-20T02:43:24.464Z,1006.9
2019-02-20T02:44:26.919Z,1006.9
2019-02-20T02:45:29.030Z,1007
2019-02-20T02:46:31.225Z,1006.9
2019-02-20T02:47:33.371Z,1006.9
2019-02-20T02:48:35.482Z,1006.9
2019-02-20T02:49:38.174Z,1006.9
2019-02-20T02:50:40.307Z,1007
2019-02-20T02:51:43.129Z,1006.9
2019-02-20T02:52:45.230Z,1007
2019-02-20T02:53:48.013Z,1006.9
2019-02-20T02:54:50.527Z,1006.9
2019-02-20T02:55:53.464Z,1006.9
2019-02-20T02:56:55.574Z,1006.9
2019-02-20T02:57:57.726Z,1006.8
2019-02-20T02:59:00.557Z,1006.8
2019-02-20T03:00:02.658Z,1006.8
2019-02-20T03:01:05.084Z,1006.9
2019-02-20T03:02:07.207Z,1006.9
2019-02-20T03:03:09.611Z,1006.9
2019-02-20T03:04:12.051Z,1006.8
2019-02-20T03:05:14.167Z,1006.9
2019-02-20T03:06:16.599Z,1006.9
2019-02-20T03:07:18.702Z,1007
2019-02-20T03:08:20.833Z,1006.9
2019-02-20T03:09:22.961Z,1007
2019-02-20T03:10:25.521Z,1007
2019-02-20T03:11:28.430Z,1007
2019-02-20T03:12:30.525Z,1007
2019-02-20T03:13:32.659Z,1007
2019-02-20T03:14:35.183Z,1007
2019-02-20T03:15:37.701Z,1007
2019-02-20T03:16:40.582Z,1007.1
2019-02-20T03:17:43.381Z,1007
2019-02-20T03:18:45.499Z,1007.1
2019-02-20T03:19:47.619Z,1007.1
2019-02-20T03:20:50.049Z,1007.1
2019-02-20T03:21:52.161Z,1007.1
2019-02-20T03:22:54.293Z,1007.2
2019-02-20T03:23:56.826Z,1007.2
2019-02-20T03:24:59.327Z,1007.2
2019-02-20T03:26:02.006Z,1007.1
2019-02-20T03:27:04.732Z,1007.2
2019-02-20T03:28:06.836Z,1007.2
2019-02-20T03:29:09.242Z,1007.2
2019-02-20T03:30:11.956Z,1007.2
2019-02-20T03:31:14.630Z,1007.2
2019-02-20T03:32:17.144Z,1007.2
2019-02-20T03:33:20.300Z,1007.2
2019-02-20T03:34:24.151Z,1007.2
2019-02-20T03:35:26.587Z,1007.2
2019-02-20T03:36:29.012Z,1007.2
2019-02-20T03:37:31.394Z,1007.2
2019-02-20T03:38:33.522Z,1007.3
2019-02-20T03:39:35.918Z,1007.3
2019-02-20T03:40:38.652Z,1007.3
2019-02-20T03:41:41.089Z,1007.4
2019-02-20T03:42:43.895Z,1007.3
2019-02-20T03:43:46.424Z,1007.3
2019-02-20T03:44:48.536Z,1007.3
2019-02-20T03:45:51.350Z,1007.3
2019-02-20T03:46:54.146Z,1007.2
2019-02-20T03:47:56.559Z,1007.2
2019-02-20T03:48:58.977Z,1007.2
2019-02-20T03:50:01.394Z,1007.2
2019-02-20T03:51:04.233Z,1007.2
2019-02-20T03:52:06.372Z,1007.2
2019-02-20T03:53:08.493Z,1007.2
2019-02-20T03:54:10.599Z,1007.2
2019-02-20T03:55:12.998Z,1007.3
2019-02-20T03:56:15.120Z,1007.2
2019-02-20T03:57:17.520Z,1007.2
2019-02-20T03:58:19.689Z,1007.2
2019-02-20T03:59:21.835Z,1007.2
2019-02-20T04:00:24.526Z,1007.2
2019-02-20T04:01:26.987Z,1007.2
2019-02-20T04:02:29.117Z,1007.1
2019-02-20T04:03:31.523Z,1007.2
2019-02-20T04:04:33.920Z,1007.2
2019-02-20T04:05:36.064Z,1007.2
2019-02-20T04:06:38.178Z,1007.2
2019-02-20T04:07:40.641Z,1007.2
2019-02-20T04:08:42.775Z,1007.3
2019-02-20T04:09:45.613Z,1007.3
2019-02-20T04:10:47.726Z,1007.3
2019-02-20T04:11:49.848Z,1007.3
2019-02-20T04:12:52.276Z,1007.3
2019-02-20T04:13:54.719Z,1007.3
2019-02-20T04:14:57.158Z,1007.4
2019-02-20T04:15:59.595Z,1007.4
2019-02-20T04:17:02.008Z,1007.3
2019-02-20T04:18:04.821Z,1007.3
2019-02-20T04:19:07.349Z,1007.3
2019-02-20T04:20:09.892Z,1007.3
2019-02-20T04:21:12.010Z,1007.3
2019-02-20T04:22:14.804Z,1007.3
2019-02-20T04:23:16.935Z,1007.3
2019-02-20T04:24:19.327Z,1007.3
2019-02-20T04:25:21.837Z,1007.3
2019-02-20T04:26:23.962Z,1007.4
2019-02-20T04:27:26.082Z,1007.4
2019-02-20T04:28:28.517Z,1007.4
2019-02-20T04:29:30.640Z,1007.3
2019-02-20T04:30:32.763Z,1007.4
2019-02-20T04:31:34.891Z,1007.4
2019-02-20T04:32:37.032Z,1007.4
2019-02-20T04:33:39.432Z,1007.4
2019-02-20T04:34:41.567Z,1007.4
2019-02-20T04:35:43.680Z,1007.5
2019-02-20T04:36:45.878Z,1007.5
2019-02-20T04:37:48.389Z,1007.5
2019-02-20T04:38:50.841Z,1007.5
2019-02-20T04:39:53.228Z,1007.4
2019-02-20T04:40:55.383Z,1007.4
2019-02-20T04:41:57.508Z,1007.5
2019-02-20T04:42:59.915Z,1007.4
2019-02-20T04:44:02.360Z,1007.4
2019-02-20T04:45:05.472Z,1007.5
2019-02-20T04:46:07.885Z,1007.5
2019-02-20T04:47:10.626Z,1007.5
2019-02-20T04:48:13.061Z,1007.5
2019-02-20T04:49:15.183Z,1007.5
2019-02-20T04:50:17.636Z,1007.5
2019-02-20T04:51:19.750Z,1007.6
2019-02-20T04:52:21.900Z,1007.6
2019-02-20T04:53:24.284Z,1007.5
2019-02-20T04:54:27.113Z,1007.6
2019-02-20T04:55:29.254Z,1007.6
2019-02-20T04:56:32.474Z,1007.6
2019-02-20T04:57:34.576Z,1007.6
2019-02-20T04:58:36.763Z,1007.5
2019-02-20T04:59:38.889Z,1007.5
2019-02-20T05:00:41.569Z,1007.5
2019-02-20T05:01:43.722Z,1007.5
2019-02-20T05:02:46.190Z,1007.5
2019-02-20T05:03:48.893Z,1007.5
2019-02-20T05:04:51.659Z,1007.5
2019-02-20T05:05:53.813Z,1007.5
2019-02-20T05:06:56.250Z,1007.5
2019-02-20T05:07:58.974Z,1007.5
2019-02-20T05:09:01.711Z,1007.5
2019-02-20T05:10:04.794Z,1007.5
2019-02-20T05:11:06.925Z,1007.5
2019-02-20T05:12:09.063Z,1007.5
2019-02-20T05:13:11.200Z,1007.5
2019-02-20T05:14:13.334Z,1007.5
2019-02-20T05:15:16.130Z,1007.5
2019-02-20T05:16:18.550Z,1007.6
2019-02-20T05:17:21.424Z,1007.5
2019-02-20T05:18:23.557Z,1007.5
2019-02-20T05:19:26.069Z,1007.6
2019-02-20T05:20:28.865Z,1007.6
2019-02-20T05:21:32.029Z,1007.6
2019-02-20T05:22:34.132Z,1007.7
2019-02-20T05:23:36.258Z,1007.6
2019-02-20T05:24:38.714Z,1007.6
2019-02-20T05:25:41.141Z,1007.7
2019-02-20T05:26:43.553Z,1007.6
2019-02-20T05:27:46.003Z,1007.6
2019-02-20T05:28:48.430Z,1007.6
2019-02-20T05:29:50.878Z,1007.6
2019-02-20T05:30:53.591Z,1007.5
2019-02-20T05:31:55.752Z,1007.6
2019-02-20T05:32:57.917Z,1007.6
2019-02-20T05:34:00.349Z,1007.5
2019-02-20T05:35:02.927Z,1007.6
2019-02-20T05:36:05.059Z,1007.6
2019-02-20T05:37:07.218Z,1007.6
2019-02-20T05:38:09.689Z,1007.6
2019-02-20T05:39:11.835Z,1007.6
2019-02-20T05:40:14.361Z,1007.6
2019-02-20T05:41:16.781Z,1007.6
2019-02-20T05:42:20.050Z,1007.6
2019-02-20T05:43:22.166Z,1007.6
2019-02-20T05:44:24.293Z,1007.6
2019-02-20T05:45:26.887Z,1007.7
2019-02-20T05:46:29.000Z,1007.7
2019-02-20T05:47:31.426Z,1007.7
2019-02-20T05:48:34.261Z,1007.7
2019-02-20T05:49:36.474Z,1007.7
2019-02-20T05:50:38.628Z,1007.7
2019-02-20T05:51:40.776Z,1007.7
2019-02-20T05:52:43.490Z,1007.7
2019-02-20T05:53:46.201Z,1007.8
2019-02-20T05:54:48.371Z,1007.8
2019-02-20T05:55:50.499Z,1007.8
2019-02-20T05:56:52.630Z,1007.8
2019-02-20T05:57:54.772Z,1007.7
2019-02-20T05:58:56.882Z,1007.7
2019-02-20T05:59:59.406Z,1007.7
2019-02-20T06:01:01.931Z,1007.7
2019-02-20T06:02:04.386Z,1007.7
2019-02-20T06:03:06.928Z,1007.7
2019-02-20T06:04:09.732Z,1007.7
2019-02-20T06:05:12.450Z,1007.7
2019-02-20T06:06:14.608Z,1007.7
2019-02-20T06:07:17.421Z,1007.7
2019-02-20T06:08:19.531Z,1007.8
2019-02-20T06:09:22.229Z,1007.8
2019-02-20T06:10:26.460Z,1007.8
2019-02-20T06:11:28.583Z,1007.9
2019-02-20T06:12:31.090Z,1008
2019-02-20T06:13:33.215Z,1008
2019-02-20T06:14:35.735Z,1008
2019-02-20T06:15:37.855Z,1008
2019-02-20T06:16:40.303Z,1008
2019-02-20T06:17:42.706Z,1008.1
2019-02-20T06:18:45.240Z,1008
2019-02-20T06:19:47.392Z,1008
2019-02-20T06:20:50.549Z,1008.1
2019-02-20T06:21:52.693Z,1008
2019-02-20T06:22:55.805Z,1008.1
2019-02-20T06:23:57.906Z,1008.1
2019-02-20T06:25:00.804Z,1008.1
2019-02-20T06:26:03.516Z,1008.1
2019-02-20T06:27:08.270Z,1008.2
2019-02-20T06:28:10.970Z,1008.2
2019-02-20T06:29:13.390Z,1008.1
2019-02-20T06:30:15.924Z,1008.2
2019-02-20T06:31:18.734Z,1008.2
2019-02-20T06:32:21.158Z,1008.2
2019-02-20T06:33:25.605Z,1008.2
2019-02-20T06:34:27.720Z,1008.2
2019-02-20T06:35:29.902Z,1008.2
2019-02-20T06:36:32.335Z,1008.2
2019-02-20T06:37:34.453Z,1008.2
2019-02-20T06:38:37.720Z,1008.2
2019-02-20T06:39:40.237Z,1008.3
2019-02-20T06:40:42.720Z,1008.3
2019-02-20T06:41:45.763Z,1008.3
2019-02-20T06:42:48.202Z,1008.3
2019-02-20T06:43:50.330Z,1008.3
2019-02-20T06:44:52.446Z,1008.3
2019-02-20T06:45:54.545Z,1008.4
2019-02-20T06:46:57.054Z,1008.4
2019-02-20T06:47:59.455Z,1008.4
2019-02-20T06:49:01.861Z,1008.4
2019-02-20T06:50:03.993Z,1008.4
2019-02-20T06:51:06.115Z,1008.4
2019-02-20T06:52:08.512Z,1008.4
2019-02-20T06:53:11.651Z,1008.3
2019-02-20T06:54:14.156Z,1008.3
2019-02-20T06:55:16.566Z,1008.2
2019-02-20T06:56:18.698Z,1008.2
2019-02-20T06:57:20.808Z,1008.3
2019-02-20T06:58:23.224Z,1008.2
2019-02-20T06:59:25.349Z,1008.2
2019-02-20T07:00:27.478Z,1008.2
2019-02-20T07:01:29.577Z,1008.2
2019-02-20T07:02:31.702Z,1008.2
2019-02-20T07:03:33.821Z,1008.3
2019-02-20T07:04:36.325Z,1008.2
2019-02-20T07:05:38.739Z,1008.3
2019-02-20T07:06:40.854Z,1008.3
2019-02-20T07:07:44.181Z,1008.2
2019-02-20T07:08:46.571Z,1008.2
2019-02-20T07:09:49.486Z,1008.3
2019-02-20T07:10:51.889Z,1008.3
2019-02-20T07:11:54.017Z,1008.3
2019-02-20T07:12:56.133Z,1008.3
2019-02-20T07:13:58.522Z,1008.3
2019-02-20T07:15:01.265Z,1008.3
2019-02-20T07:16:03.660Z,1008.4
2019-02-20T07:17:06.123Z,1008.4
2019-02-20T07:18:09.892Z,1008.4
2019-02-20T07:19:12.034Z,1008.3
2019-02-20T07:20:14.506Z,1008.3
2019-02-20T07:21:17.385Z,1008.4
2019-02-20T07:22:21.222Z,1008.4
2019-02-20T07:23:23.664Z,1008.4
2019-02-20T07:24:26.118Z,1008.4
2019-02-20T07:25:28.911Z,1008.4
2019-02-20T07:26:31.457Z,1008.4
2019-02-20T07:27:33.574Z,1008.4
2019-02-20T07:28:35.680Z,1008.4
2019-02-20T07:29:38.696Z,1008.4
2019-02-20T07:30:40.797Z,1008.4
2019-02-20T07:31:43.222Z,1008.5
2019-02-20T07:32:46.324Z,1008.5
2019-02-20T07:33:48.831Z,1008.5
2019-02-20T07:34:50.939Z,1008.6
2019-02-20T07:35:53.745Z,1008.6
2019-02-20T07:36:56.168Z,1008.6
2019-02-20T07:37:59.205Z,1008.7
2019-02-20T07:39:01.624Z,1008.7
2019-02-20T07:40:04.067Z,1008.7
2019-02-20T07:41:06.572Z,1008.7
2019-02-20T07:42:09.098Z,1008.8
2019-02-20T07:43:11.251Z,1008.7
2019-02-20T07:44:13.366Z,1008.7
2019-02-20T07:45:15.491Z,1008.8
2019-02-20T07:46:17.628Z,1008.8
2019-02-20T07:47:20.026Z,1008.8
2019-02-20T07:48:22.149Z,1008.8
2019-02-20T07:49:24.261Z,1008.8
2019-02-20T07:50:26.373Z,1008.8
2019-02-20T07:51:28.486Z,1008.8
2019-02-20T07:52:30.615Z,1008.8
2019-02-20T07:53:33.006Z,1008.8
2019-02-20T07:54:35.852Z,1008.8
2019-02-20T07:55:38.274Z,1008.8
2019-02-20T07:56:40.775Z,1008.8
2019-02-20T07:57:42.891Z,1008.8
2019-02-20T07:58:45.303Z,1008.8
2019-02-20T07:59:47.720Z,1008.9
2019-02-20T08:00:50.654Z,1008.8
2019-02-20T08:01:53.059Z,1008.9
2019-02-20T08:02:55.189Z,1008.9
2019-02-20T08:03:57.353Z,1009
2019-02-20T08:04:59.769Z,1008.9
2019-02-20T08:06:02.330Z,1009
2019-02-20T08:07:05.533Z,1008.9
2019-02-20T08:08:08.323Z,1008.9
2019-02-20T08:09:10.796Z,1009
2019-02-20T08:10:13.233Z,1009
2019-02-20T08:11:16.327Z,1009
2019-02-20T08:12:18.747Z,1009
2019-02-20T08:13:21.312Z,1009
2019-02-20T08:14:23.791Z,1009
2019-02-20T08:15:26.207Z,1009
2019-02-20T08:16:28.338Z,1009
2019-02-20T08:17:30.745Z,1009
2019-02-20T08:18:32.865Z,1009
2019-02-20T08:19:35.303Z,1009
2019-02-20T08:20:37.689Z,1009
2019-02-20T08:21:40.136Z,1009
2019-02-20T08:22:42.548Z,1009.1
2019-02-20T08:23:45.259Z,1009.1
2019-02-20T08:24:48.354Z,1009.1
2019-02-20T08:25:50.766Z,1009.2
2019-02-20T08:26:53.174Z,1009.2
2019-02-20T08:27:55.906Z,1009.1
2019-02-20T08:28:58.027Z,1009.1
2019-02-20T08:30:00.850Z,1009.2
2019-02-20T08:31:03.002Z,1009.2
2019-02-20T08:32:05.132Z,1009.2
2019-02-20T08:33:07.626Z,1009.2
2019-02-20T08:34:09.749Z,1009.3
2019-02-20T08:35:11.866Z,1009.3
2019-02-20T08:36:14.264Z,1009.3
2019-02-20T08:37:16.783Z,1009.4
2019-02-20T08:38:21.023Z,1009.4
2019-02-20T08:39:23.827Z,1009.4
2019-02-20T08:40:26.234Z,1009.3
2019-02-20T08:41:28.372Z,1009.4
2019-02-20T08:42:30.753Z,1009.4
2019-02-20T08:43:32.873Z,1009.4
2019-02-20T08:44:35.627Z,1009.4
2019-02-20T08:45:38.157Z,1009.4
2019-02-20T08:46:40.573Z,1009.5
2019-02-20T08:47:43.962Z,1009.4
2019-02-20T08:48:46.089Z,1009.5
2019-02-20T08:49:48.221Z,1009.5
2019-02-20T08:50:51.031Z,1009.5
2019-02-20T08:51:53.473Z,1009.6
2019-02-20T08:52:55.582Z,1009.6
2019-02-20T08:53:58.113Z,1009.6
2019-02-20T08:55:00.594Z,1009.6
2019-02-20T08:56:03.443Z,1009.7
2019-02-20T08:57:06.176Z,1009.7
2019-02-20T08:58:08.293Z,1009.7
2019-02-20T08:59:11.791Z,1009.7
2019-02-20T09:00:14.309Z,1009.7
2019-02-20T09:01:16.431Z,1009.8
2019-02-20T09:02:19.268Z,1009.7
2019-02-20T09:03:21.987Z,1009.8
2019-02-20T09:04:24.393Z,1009.8
2019-02-20T09:05:26.815Z,1009.8
2019-02-20T09:06:29.248Z,1009.8
2019-02-20T09:07:31.922Z,1009.8
2019-02-20T09:08:34.033Z,1009.9
2019-02-20T09:09:36.550Z,1009.9
2019-02-20T09:10:39.044Z,1009.9
2019-02-20T09:11:41.452Z,1009.8
2019-02-20T09:12:43.872Z,1009.8
2019-02-20T09:13:46.014Z,1009.8
2019-02-20T09:14:48.530Z,1009.9
2019-02-20T09:15:50.642Z,1010
2019-02-20T09:16:52.760Z,1009.9
2019-02-20T09:17:55.655Z,1009.9
2019-02-20T09:18:57.757Z,1009.9
2019-02-20T09:20:00.338Z,1010
2019-02-20T09:21:03.090Z,1010
2019-02-20T09:22:05.619Z,1010
2019-02-20T09:23:08.451Z,1010
2019-02-20T09:24:10.990Z,1010
2019-02-20T09:25:20.274Z,1010
2019-02-20T09:26:22.413Z,1010.1
2019-02-20T09:27:24.556Z,1010.1
2019-02-20T09:28:27.347Z,1010.1
2019-02-20T09:29:29.816Z,1010.1
2019-02-20T09:30:32.291Z,1010.1
2019-02-20T09:31:35.507Z,1010.1
2019-02-20T09:32:37.615Z,1010.1
2019-02-20T09:33:39.739Z,1010.2
2019-02-20T09:34:42.140Z,1010.1
2019-02-20T09:35:44.259Z,1010.2
2019-02-20T09:36:46.391Z,1010.2
2019-02-20T09:37:48.520Z,1010.2
2019-02-20T09:38:50.632Z,1010.2
2019-02-20T09:39:52.769Z,1010.1
2019-02-20T09:40:54.893Z,1010.2
2019-02-20T09:41:57.306Z,1010.2
2019-02-20T09:42:59.445Z,1010.2
2019-02-20T09:44:01.548Z,1010.1
2019-02-20T09:45:03.708Z,1010.2
2019-02-20T09:46:06.113Z,1010.1
2019-02-20T09:47:08.252Z,1010.1
2019-02-20T09:48:10.368Z,1010.2
2019-02-20T09:49:13.181Z,1010.2
2019-02-20T09:50:15.901Z,1010.2
2019-02-20T09:51:19.110Z,1010.2
2019-02-20T09:52:21.530Z,1010.2
2019-02-20T09:53:24.053Z,1010.2
2019-02-20T09:54:26.450Z,1010.2
2019-02-20T09:55:28.858Z,1010.2
2019-02-20T09:56:30.973Z,1010.3
2019-02-20T09:57:33.799Z,1010.3
2019-02-20T09:58:36.507Z,1010.3
2019-02-20T09:59:38.922Z,1010.3
2019-02-20T10:00:41.059Z,1010.4
2019-02-20T10:01:43.459Z,1010.4
2019-02-20T10:02:47.679Z,1010.4
2019-02-20T10:03:49.826Z,1010.4
2019-02-20T10:04:52.234Z,1010.4
2019-02-20T10:05:54.653Z,1010.4
2019-02-20T10:06:56.778Z,1010.4
2019-02-20T10:07:58.887Z,1010.3
2019-02-20T10:09:01.030Z,1010.4
2019-02-20T10:10:03.470Z,1010.4
2019-02-20T10:11:06.165Z,1010.4
2019-02-20T10:12:08.618Z,1010.4
2019-02-20T10:13:11.859Z,1010.4
2019-02-20T10:14:14.588Z,1010.4
2019-02-20T10:15:17.006Z,1010.5
2019-02-20T10:16:19.937Z,1010.4
2019-02-20T10:17:22.049Z,1010.4
2019-02-20T10:18:24.477Z,1010.4
2019-02-20T10:19:26.609Z,1010.4
2019-02-20T10:20:29.071Z,1010.4
2019-02-20T10:21:31.513Z,1010.4
2019-02-20T10:22:33.949Z,1010.4
2019-02-20T10:23:36.457Z,1010.4
2019-02-20T10:24:38.958Z,1010.5
2019-02-20T10:25:41.107Z,1010.5
2019-02-20T10:26:44.920Z,1010.5
2019-02-20T10:27:47.070Z,1010.5
2019-02-20T10:28:49.501Z,1010.5
2019-02-20T10:29:51.922Z,1010.5
2019-02-20T10:30:54.455Z,1010.5
2019-02-20T10:31:56.854Z,1010.5
2019-02-20T10:32:59.661Z,1010.5
2019-02-20T10:34:02.093Z,1010.5
2019-02-20T10:35:04.491Z,1010.5
2019-02-20T10:36:06.654Z,1010.5
2019-02-20T10:37:09.469Z,1010.5
2019-02-20T10:38:11.592Z,1010.6
2019-02-20T10:39:13.702Z,1010.6
2019-02-20T10:40:16.162Z,1010.6
2019-02-20T10:41:18.744Z,1010.5
2019-02-20T10:42:20.877Z,1010.5
2019-02-20T10:43:23.022Z,1010.5
2019-02-20T10:44:25.834Z,1010.5
2019-02-20T10:45:27.952Z,1010.5
2019-02-20T10:46:30.089Z,1010.5
2019-02-20T10:47:32.207Z,1010.5
2019-02-20T10:48:34.906Z,1010.5
2019-02-20T10:49:38.330Z,1010.5
2019-02-20T10:50:41.233Z,1010.5
2019-02-20T10:51:43.634Z,1010.5
2019-02-20T10:52:45.758Z,1010.5
2019-02-20T10:53:47.900Z,1010.6
2019-02-20T10:54:58.119Z,1010.5
2019-02-20T10:56:09.875Z,1010.6
2019-02-20T10:57:12.371Z,1010.6
2019-02-20T10:58:14.486Z,1010.6
2019-02-20T10:59:16.636Z,1010.6
2019-02-20T11:00:24.649Z,1010.6
2019-02-20T11:01:27.196Z,1010.6
2019-02-20T11:02:29.328Z,1010.6
2019-02-20T11:03:32.039Z,1010.7
2019-02-20T11:04:34.156Z,1010.6
2019-02-20T11:05:36.287Z,1010.6
2019-02-20T11:06:38.712Z,1010.7
2019-02-20T11:07:40.817Z,1010.7
2019-02-20T11:08:42.966Z,1010.7
2019-02-20T11:09:46.565Z,1010.7
2019-02-20T11:10:48.721Z,1010.7
2019-02-20T11:11:51.143Z,1010.8
2019-02-20T11:12:55.861Z,1010.7
2019-02-20T11:13:57.998Z,1010.7
2019-02-20T11:15:00.419Z,1010.7
2019-02-20T11:16:02.608Z,1010.7
2019-02-20T11:17:05.007Z,1010.7
2019-02-20T11:18:07.146Z,1010.7
2019-02-20T11:19:09.310Z,1010.6
2019-02-20T11:20:11.423Z,1010.7
2019-02-20T11:21:16.015Z,1010.7
2019-02-20T11:22:18.535Z,1010.7
2019-02-20T11:23:22.865Z,1010.7
2019-02-20T11:24:25.286Z,1010.7
2019-02-20T11:25:27.414Z,1010.8
2019-02-20T11:26:29.860Z,1010.7
2019-02-20T11:27:31.978Z,1010.7
2019-02-20T11:28:34.141Z,1010.7
2019-02-20T11:29:36.260Z,1010.7
2019-02-20T11:30:38.376Z,1010.7
2019-02-20T11:31:40.519Z,1010.8
2019-02-20T11:32:42.626Z,1010.7
2019-02-20T11:33:45.075Z,1010.8
2019-02-20T11:34:47.193Z,1010.7
2019-02-20T11:35:49.348Z,1010.7
2019-02-20T11:36:51.457Z,1010.7
2019-02-20T11:37:53.879Z,1010.7
2019-02-20T11:38:56.051Z,1010.7
2019-02-20T11:39:58.526Z,1010.7
2019-02-20T11:41:00.707Z,1010.8
2019-02-20T11:42:03.167Z,1010.8
2019-02-20T11:43:06.512Z,1010.8
2019-02-20T11:44:08.971Z,1010.7
2019-02-20T11:45:11.096Z,1010.9
2019-02-20T11:46:13.217Z,1010.8
2019-02-20T11:47:15.385Z,1010.8
2019-02-20T11:48:17.519Z,1010.9
2019-02-20T11:49:19.770Z,1010.8
2019-02-20T11:50:21.886Z,1010.8
2019-02-20T11:51:24.029Z,1010.8
2019-02-20T11:52:26.164Z,1010.8
2019-02-20T11:53:37.550Z,1010.8
2019-02-20T11:54:39.693Z,1010.8
2019-02-20T11:55:41.816Z,1010.8
2019-02-20T11:56:43.963Z,1010.8
2019-02-20T11:57:46.403Z,1010.8
2019-02-20T11:58:48.803Z,1010.8
2019-02-20T11:59:50.956Z,1010.8
2019-02-20T12:00:53.075Z,1010.8
2019-02-20T12:01:55.363Z,1010.8
2019-02-20T12:02:57.482Z,1010.8
2019-02-20T12:03:59.604Z,1010.8
2019-02-20T12:05:02.131Z,1010.9
2019-02-20T12:06:04.526Z,1010.8
2019-02-20T12:07:06.664Z,1010.8
2019-02-20T12:08:09.175Z,1010.8
2019-02-20T12:09:11.298Z,1010.7
2019-02-20T12:10:13.408Z,1010.8
2019-02-20T12:11:15.841Z,1010.7
2019-02-20T12:12:18.337Z,1010.7
2019-02-20T12:13:20.456Z,1010.7
2019-02-20T12:14:25.000Z,1010.7
2019-02-20T12:15:29.130Z,1010.7
2019-02-20T12:16:32.923Z,1010.7
2019-02-20T12:17:35.359Z,1010.8
2019-02-20T12:18:37.863Z,1010.7
2019-02-20T12:19:40.255Z,1010.7
2019-02-20T12:20:42.381Z,1010.8
2019-02-20T12:21:44.494Z,1010.7
2019-02-20T12:22:46.615Z,1010.8
2019-02-20T12:23:48.750Z,1010.8
2019-02-20T12:24:51.194Z,1010.8
2019-02-20T12:25:54.640Z,1010.8
2019-02-20T12:26:57.038Z,1010.8
2019-02-20T12:27:59.161Z,1010.8
2019-02-20T12:29:01.285Z,1010.8
2019-02-20T12:30:03.401Z,1010.8
2019-02-20T12:31:06.127Z,1010.8
2019-02-20T12:32:08.246Z,1010.8
2019-02-20T12:33:11.075Z,1010.9
2019-02-20T12:34:13.479Z,1010.8
2019-02-20T12:35:15.625Z,1010.8
2019-02-20T12:36:17.800Z,1010.8
2019-02-20T12:37:19.918Z,1010.8
2019-02-20T12:38:22.431Z,1010.8
2019-02-20T12:39:24.824Z,1010.8
2019-02-20T12:40:30.520Z,1010.8
2019-02-20T12:41:32.642Z,1010.8
2019-02-20T12:42:35.095Z,1010.8
2019-02-20T12:43:37.209Z,1010.8
2019-02-20T12:44:39.335Z,1010.8
2019-02-20T12:45:41.450Z,1010.8
2019-02-20T12:46:43.577Z,1010.8
2019-02-20T12:47:45.712Z,1010.8
2019-02-20T12:48:48.155Z,1010.8
2019-02-20T12:49:51.758Z,1010.8
2019-02-20T12:50:53.894Z,1010.9
2019-02-20T12:51:56.028Z,1010.8
2019-02-20T12:52:58.147Z,1010.8
2019-02-20T12:54:00.273Z,1010.8
2019-02-20T12:55:02.386Z,1010.8
2019-02-20T12:56:10.365Z,1010.8
2019-02-20T12:57:12.934Z,1010.8
2019-02-20T12:58:15.078Z,1010.8
2019-02-20T12:59:17.194Z,1010.8
2019-02-20T13:00:19.333Z,1010.9
2019-02-20T13:01:21.454Z,1010.9
2019-02-20T13:02:23.568Z,1010.8